Time;durP1;ratioP1;P1;durP2;ratioP2;P2;SDS_P1;SDS_P2;PMS_P1;PMS_P2;Temp;Humidity;BMP_temperature;BMP_pressure;BME280_temperature;BME280_humidity;BME280_pressure;Samples;Min_cycle;Max_cycle;Signal;HPM_P1;HPM_P2
2023/02/07 00:00:53;;;;;;;16.33;5.05;;;28.70;72.80;;;;;;5083069;28;20020;-55
2023/02/07 00:03:20;;;;;;;18.95;5.20;;;28.70;72.90;;;;;;5083184;28;20035;-57
2023/02/07 00:05:46;;;;;;;12.63;4.40;;;28.80;73.00;;;;;;5086349;28;20028;-58
2023/02/07 00:08:15;;;;;;;15.43;4.82;;;28.70;72.90;;;;;;5087039;28;20048;-56
2023/02/07 00:10:41;;;;;;;11.57;4.10;;;28.70;73.00;;;;;;5086840;28;20024;-56
2023/02/07 00:13:08;;;;;;;18.23;4.65;;;28.70;73.00;;;;;;5087000;28;20056;-57
2023/02/07 00:15:35;;;;;;;18.65;5.07;;;28.70;73.10;;;;;;5086736;28;20220;-55
2023/02/07 00:18:01;;;;;;;14.18;5.18;;;28.70;73.20;;;;;;5086832;28;20365;-52
2023/02/07 00:20:28;;;;;;;23.45;4.55;;;28.70;73.30;;;;;;5086953;28;20032;-60
2023/02/07 00:22:54;;;;;;;12.95;3.70;;;28.60;73.30;;;;;;5086995;28;20027;-55
2023/02/07 00:25:21;;;;;;;14.95;4.20;;;28.60;73.40;;;;;;5087305;28;20077;-58
2023/02/07 00:27:48;;;;;;;15.05;4.20;;;28.60;73.30;;;;;;5086928;28;20106;-55
2023/02/07 00:30:14;;;;;;;15.13;4.13;;;28.60;73.30;;;;;;5086797;28;20194;-56
2023/02/07 00:32:41;;;;;;;16.17;5.03;;;28.60;73.30;;;;;;5086665;28;20024;-57
2023/02/07 00:35:08;;;;;;;15.05;4.53;;;28.60;73.30;;;;;;5086833;28;20021;-57
2023/02/07 00:37:34;;;;;;;21.08;5.35;;;28.60;73.30;;;;;;5086576;28;20021;-55
2023/02/07 00:40:01;;;;;;;17.27;4.30;;;28.50;73.30;;;;;;5086921;28;20099;-56
2023/02/07 00:42:28;;;;;;;17.92;4.20;;;28.60;73.40;;;;;;5086222;28;20087;-55
2023/02/07 00:44:54;;;;;;;14.93;3.90;;;28.50;73.10;;;;;;5086121;28;20055;-52
2023/02/07 00:47:21;;;;;;;18.67;4.07;;;28.50;73.00;;;;;;5086395;28;20329;-55
2023/02/07 00:49:47;;;;;;;12.55;3.88;;;28.50;72.90;;;;;;5086455;28;20056;-55
2023/02/07 00:52:14;;;;;;;19.40;4.57;;;28.50;72.80;;;;;;5086222;28;20028;-55
2023/02/07 00:54:40;;;;;;;17.73;4.05;;;28.50;72.70;;;;;;5086632;28;20032;-55
2023/02/07 00:57:08;;;;;;;8.90;3.40;;;28.50;72.60;;;;;;5086100;28;20025;-55
2023/02/07 00:59:34;;;;;;;15.68;3.85;;;28.40;72.30;;;;;;5084935;28;20032;-54
2023/02/07 01:02:03;;;;;;;10.18;3.63;;;28.40;72.10;;;;;;5066061;28;20029;-55
2023/02/07 01:04:29;;;;;;;12.27;3.92;;;28.40;71.80;;;;;;5066231;28;20305;-56
2023/02/07 01:06:56;;;;;;;17.80;4.28;;;28.40;71.80;;;;;;5066349;28;20250;-56
2023/02/07 01:09:22;;;;;;;19.67;3.70;;;28.40;71.50;;;;;;5066135;28;20323;-55
2023/02/07 01:11:49;;;;;;;16.73;3.55;;;28.40;71.40;;;;;;5065895;28;20345;-55
2023/02/07 01:14:15;;;;;;;14.15;4.10;;;28.30;71.40;;;;;;5066064;28;20301;-57
2023/02/07 01:16:42;;;;;;;8.52;3.58;;;28.30;71.20;;;;;;5065429;28;20028;-56
2023/02/07 01:19:10;;;;;;;18.48;4.13;;;28.30;71.20;;;;;;5066215;28;20293;-64
2023/02/07 01:21:37;;;;;;;28.73;4.63;;;28.30;71.10;;;;;;5081704;28;20103;-57
2023/02/07 01:24:04;;;;;;;30.33;4.57;;;28.10;70.70;;;;;;5086048;28;20032;-58
2023/02/07 01:26:31;;;;;;;71.50;7.38;;;27.90;71.00;;;;;;5085586;28;20020;-57
2023/02/07 01:28:57;;;;;;;26.38;5.50;;;27.80;71.40;;;;;;5085877;28;20052;-58
2023/02/07 01:31:25;;;;;;;23.25;5.90;;;27.70;71.50;;;;;;5085352;28;20024;-60
2023/02/07 01:33:56;;;;;;;19.88;6.40;;;27.60;71.90;;;;;;5085562;28;20104;-57
2023/02/07 01:36:24;;;;;;;21.58;7.60;;;27.40;72.10;;;;;;5085506;28;20025;-59
2023/02/07 01:38:52;;;;;;;19.65;7.15;;;27.40;72.40;;;;;;5085322;28;20083;-57
2023/02/07 01:41:21;;;;;;;14.65;6.43;;;27.30;72.30;;;;;;5085248;28;20028;-57
2023/02/07 01:44:04;;;;;;;21.75;5.72;;;27.30;72.40;;;;;;5085400;28;20024;-57
2023/02/07 01:46:32;;;;;;;30.83;5.32;;;27.40;72.20;;;;;;5084877;28;20347;-56
2023/02/07 01:49:06;;;;;;;25.42;5.10;;;27.50;72.00;;;;;;5085383;28;20029;-55
2023/02/07 01:51:34;;;;;;;20.17;5.15;;;27.60;71.70;;;;;;5085313;28;20020;-53
2023/02/07 01:54:05;;;;;;;20.10;4.70;;;27.70;71.50;;;;;;5085189;28;20020;-54
2023/02/07 01:56:34;;;;;;;19.07;4.33;;;27.70;71.30;;;;;;5085221;28;20032;-53
2023/02/07 01:59:05;;;;;;;15.50;4.20;;;27.80;71.10;;;;;;5084965;28;20036;-56
2023/02/07 02:01:33;;;;;;;14.20;4.15;;;27.80;71.00;;;;;;5084808;28;20040;-55
2023/02/07 02:03:59;;;;;;;19.65;3.95;;;27.90;70.90;;;;;;5080871;28;20036;-54
2023/02/07 02:06:29;;;;;;;12.20;3.80;;;27.90;70.90;;;;;;5077379;28;20082;-57
2023/02/07 02:08:58;;;;;;;11.95;4.05;;;27.90;70.60;;;;;;5078932;28;20118;-56
2023/02/07 02:11:43;;;;;;;16.75;4.30;;;27.90;70.60;;;;;;5077206;28;20029;-55
2023/02/07 02:14:36;;;;;;;10.93;4.18;;;27.90;70.70;;;;;;5084638;28;20035;-54
2023/02/07 02:17:24;;;;;;;10.43;4.40;;;27.90;70.50;;;;;;5083395;28;20032;-53
2023/02/07 02:20:09;;;;;;;12.10;4.15;;;28.00;70.40;;;;;;5081414;28;20086;-55
2023/02/07 02:22:35;;;;;;;8.02;3.22;;;28.00;70.30;;;;;;5073314;28;20025;-54
2023/02/07 02:25:13;;;;;;;8.98;3.63;;;27.90;70.10;;;;;;5076170;28;20028;-54
2023/02/07 02:28:16;;;;;;;8.10;3.50;;;28.00;70.00;;;;;;5083958;28;20074;-55
2023/02/07 02:31:20;;;;;;;8.48;2.85;;;28.00;70.00;;;;;;5083987;28;20034;-53
2023/02/07 02:33:50;;;;;;;9.57;3.40;;;27.90;70.00;;;;;;5076269;28;20328;-51
2023/02/07 02:36:40;;;;;;;8.57;3.13;;;27.90;70.00;;;;;;5081876;28;20032;-55
2023/02/07 02:39:29;;;;;;;12.00;2.85;;;27.90;70.00;;;;;;5084341;28;20032;-54
2023/02/07 02:42:01;;;;;;;5.68;2.80;;;27.90;69.90;;;;;;5079154;28;20024;-54
2023/02/07 02:44:52;;;;;;;8.95;2.90;;;27.90;69.70;;;;;;5075197;28;20052;-53
2023/02/07 02:47:20;;;;;;;7.30;2.92;;;27.90;69.60;;;;;;5078823;28;20039;-55
2023/02/07 02:49:47;;;;;;;11.95;3.20;;;27.90;69.60;;;;;;5084430;28;20035;-57
2023/02/07 02:52:14;;;;;;;9.18;3.10;;;27.90;69.60;;;;;;5077821;28;20040;-54
2023/02/07 02:54:42;;;;;;;7.80;3.00;;;27.90;69.50;;;;;;5070705;28;20336;-56
2023/02/07 02:57:37;;;;;;;8.00;2.90;;;27.90;69.50;;;;;;5082529;28;20083;-55
2023/02/07 03:00:38;;;;;;;8.20;2.97;;;27.90;69.40;;;;;;5082977;28;20037;-55
2023/02/07 03:03:17;;;;;;;6.97;3.20;;;27.80;69.40;;;;;;5083770;28;20087;-53
2023/02/07 03:06:17;;;;;;;8.63;2.83;;;27.80;69.50;;;;;;5083479;28;20025;-54
2023/02/07 03:08:50;;;;;;;8.45;3.13;;;27.80;69.40;;;;;;5083920;28;20044;-54
2023/02/07 03:11:21;;;;;;;11.10;2.72;;;27.80;69.50;;;;;;5083917;28;20216;-56
2023/02/07 03:14:29;;;;;;;8.23;2.78;;;27.80;69.50;;;;;;5079595;28;20096;-55
2023/02/07 03:17:07;;;;;;;10.65;3.17;;;27.80;69.50;;;;;;5055435;28;20040;-49
2023/02/07 03:20:01;;;;;;;6.68;2.90;;;27.80;69.50;;;;;;5083758;28;20039;-53
2023/02/07 03:22:29;;;;;;;7.43;2.83;;;27.80;69.40;;;;;;5080671;28;20099;-53
2023/02/07 03:25:01;;;;;;;5.82;2.75;;;27.80;69.40;;;;;;5084203;28;20305;-53
2023/02/07 03:27:30;;;;;;;5.32;2.80;;;27.70;69.30;;;;;;5083775;28;20035;-54
2023/02/07 03:29:59;;;;;;;11.95;2.92;;;27.70;69.30;;;;;;5084042;28;20032;-55
2023/02/07 03:32:34;;;;;;;9.63;3.10;;;27.70;69.30;;;;;;5083741;28;20025;-53
2023/02/07 03:35:07;;;;;;;9.88;2.78;;;27.70;69.20;;;;;;5084043;28;20044;-53
2023/02/07 03:37:36;;;;;;;9.18;3.03;;;27.70;69.20;;;;;;5083834;28;20081;-53
2023/02/07 03:40:04;;;;;;;12.00;2.88;;;27.70;69.20;;;;;;5085937;28;20335;-53
2023/02/07 03:42:37;;;;;;;8.30;2.90;;;27.70;69.20;;;;;;5087758;28;20028;-55
2023/02/07 03:45:07;;;;;;;11.10;2.70;;;27.70;69.20;;;;;;5087655;28;20060;-54
2023/02/07 03:47:34;;;;;;;10.32;2.70;;;27.70;69.20;;;;;;5087655;28;20137;-54
2023/02/07 03:50:00;;;;;;;9.35;2.80;;;27.70;69.20;;;;;;5088002;28;20091;-55
2023/02/07 03:52:27;;;;;;;8.68;2.67;;;27.70;69.00;;;;;;5087547;28;20320;-55
2023/02/07 03:54:53;;;;;;;8.02;2.90;;;27.70;69.10;;;;;;5087807;28;20201;-55
2023/02/07 03:57:20;;;;;;;5.90;2.72;;;27.70;69.10;;;;;;5087562;28;20241;-55
2023/02/07 03:59:46;;;;;;;9.15;2.60;;;27.70;69.10;;;;;;5087739;28;20328;-55
2023/02/07 04:02:14;;;;;;;5.70;2.55;;;27.70;69.10;;;;;;5087322;28;20083;-52
2023/02/07 04:04:41;;;;;;;6.97;2.47;;;27.70;69.10;;;;;;5087829;28;20036;-57
2023/02/07 04:07:07;;;;;;;7.65;2.58;;;27.70;69.00;;;;;;5087532;28;20208;-55
2023/02/07 04:09:34;;;;;;;6.35;2.72;;;27.70;68.90;;;;;;5087453;28;20041;-51
2023/02/07 04:12:01;;;;;;;7.53;2.53;;;27.70;69.00;;;;;;5087282;28;20094;-56
2023/02/07 04:14:27;;;;;;;4.40;2.42;;;27.70;68.90;;;;;;5087436;28;20040;-53
2023/02/07 04:16:54;;;;;;;7.07;2.50;;;27.60;68.90;;;;;;5087063;28;20025;-53
2023/02/07 04:19:21;;;;;;;7.07;2.75;;;27.70;68.90;;;;;;5087234;28;20032;-53
2023/02/07 04:21:47;;;;;;;7.95;2.38;;;27.60;68.70;;;;;;5087066;28;20027;-54
2023/02/07 04:24:14;;;;;;;7.45;2.65;;;27.60;68.70;;;;;;5087207;28;20032;-54
2023/02/07 04:26:42;;;;;;;5.72;2.60;;;27.60;68.70;;;;;;5086896;28;20016;-54
2023/02/07 04:29:08;;;;;;;5.35;2.40;;;27.60;68.50;;;;;;5087005;28;20045;-54
2023/02/07 04:31:36;;;;;;;7.80;2.80;;;27.60;68.50;;;;;;5086941;28;20358;-53
2023/02/07 04:34:04;;;;;;;5.03;2.15;;;27.60;68.50;;;;;;5086761;28;20098;-54
2023/02/07 04:36:31;;;;;;;7.05;2.58;;;27.60;68.40;;;;;;5086705;28;20213;-55
2023/02/07 04:38:58;;;;;;;6.28;2.65;;;27.60;68.30;;;;;;5086934;28;20024;-57
2023/02/07 04:41:24;;;;;;;5.15;2.35;;;27.60;68.40;;;;;;5086581;28;20024;-54
2023/02/07 04:43:52;;;;;;;4.38;2.20;;;27.60;68.30;;;;;;5086700;28;20127;-55
2023/02/07 04:46:19;;;;;;;7.57;2.55;;;27.60;68.30;;;;;;5085446;28;20036;-57
2023/02/07 04:48:47;;;;;;;8.30;2.40;;;27.60;68.30;;;;;;5085429;28;20035;-55
2023/02/07 04:51:14;;;;;;;4.60;2.50;;;27.60;68.20;;;;;;5078480;28;20324;-55
2023/02/07 04:53:40;;;;;;;12.85;2.85;;;27.60;68.30;;;;;;5070799;28;20079;-53
2023/02/07 04:56:07;;;;;;;5.10;2.42;;;27.60;68.30;;;;;;5085154;28;20044;-58
2023/02/07 04:58:34;;;;;;;9.65;2.58;;;27.60;68.30;;;;;;5085326;28;20137;-53
2023/02/07 05:01:00;;;;;;;8.75;2.95;;;27.60;68.40;;;;;;5085185;28;20039;-54
2023/02/07 05:03:28;;;;;;;8.02;2.40;;;27.60;68.40;;;;;;5085196;28;20017;-54
2023/02/07 05:05:55;;;;;;;7.40;2.20;;;27.50;68.40;;;;;;5085160;28;20336;-53
2023/02/07 05:08:22;;;;;;;6.95;2.58;;;27.50;68.40;;;;;;5085096;28;20024;-55
2023/02/07 05:10:53;;;;;;;10.90;2.65;;;27.50;68.40;;;;;;5084868;28;20313;-54
2023/02/07 05:13:20;;;;;;;5.18;2.42;;;27.50;68.40;;;;;;5084949;28;20044;-55
2023/02/07 05:15:47;;;;;;;5.05;2.50;;;27.50;68.40;;;;;;5084969;28;20071;-52
2023/02/07 05:18:14;;;;;;;6.80;2.50;;;27.50;68.40;;;;;;5084861;28;20186;-56
2023/02/07 05:20:40;;;;;;;7.20;2.63;;;27.50;68.40;;;;;;5085011;28;20078;-56
2023/02/07 05:23:07;;;;;;;7.95;2.70;;;27.50;68.40;;;;;;5084781;28;20077;-52
2023/02/07 05:25:34;;;;;;;6.28;2.50;;;27.50;68.50;;;;;;5084739;28;20021;-54
2023/02/07 05:28:00;;;;;;;6.32;2.65;;;27.50;68.50;;;;;;5084720;28;20040;-56
2023/02/07 05:30:27;;;;;;;6.32;2.50;;;27.50;68.50;;;;;;5084646;28;20434;-53
2023/02/07 05:33:02;;;;;;;6.45;2.45;;;27.50;68.50;;;;;;5084598;28;20024;-54
2023/02/07 05:35:40;;;;;;;7.97;2.45;;;27.50;68.60;;;;;;5084686;28;20036;-55
2023/02/07 05:38:10;;;;;;;6.32;2.50;;;27.50;68.60;;;;;;5084502;28;20021;-54
2023/02/07 05:40:38;;;;;;;5.68;2.05;;;27.40;68.50;;;;;;5084645;28;20040;-56
2023/02/07 05:43:05;;;;;;;8.85;3.00;;;27.40;68.60;;;;;;5084476;28;20012;-54
2023/02/07 05:45:32;;;;;;;4.20;2.28;;;27.40;69.10;;;;;;5010744;28;2115283;-57
2023/02/07 05:47:58;;;;;;;6.47;2.53;;;27.40;68.50;;;;;;5085461;28;20036;-54
2023/02/07 05:50:26;;;;;;;4.65;2.65;;;27.40;68.40;;;;;;5085242;28;20086;-56
2023/02/07 05:52:52;;;;;;;8.77;2.40;;;27.40;68.40;;;;;;5085263;28;20092;-55
2023/02/07 05:55:19;;;;;;;3.80;2.30;;;27.40;68.30;;;;;;5085724;28;20020;-56
2023/02/07 05:57:46;;;;;;;7.53;2.70;;;27.40;68.30;;;;;;5085219;28;20228;-54
2023/02/07 06:00:16;;;;;;;7.57;2.70;;;27.40;68.40;;;;;;5085575;28;20016;-56
2023/02/07 06:02:43;;;;;;;5.50;2.65;;;27.40;68.40;;;;;;5084396;28;20278;-56
2023/02/07 06:05:16;;;;;;;5.88;2.45;;;27.40;68.50;;;;;;5085571;28;20037;-53
2023/02/07 06:07:43;;;;;;;;;;;27.40;68.60;;;;;;5085279;28;20093;-55
2023/02/07 06:10:11;;;;;;;4.00;2.20;;;27.40;69.10;;;;;;5085519;28;19931;-55
2023/02/07 06:12:38;;;;;;;6.28;2.40;;;27.30;68.60;;;;;;5084934;28;20024;-54
2023/02/07 06:15:05;;;;;;;4.90;2.40;;;27.30;68.70;;;;;;5085257;28;20016;-56
2023/02/07 06:17:31;;;;;;;4.35;2.47;;;27.30;68.70;;;;;;5084887;28;20032;-55
2023/02/07 06:19:58;;;;;;;5.20;2.63;;;27.30;68.80;;;;;;5085165;28;20020;-56
2023/02/07 06:22:25;;;;;;;6.32;2.70;;;27.30;68.70;;;;;;5084696;28;20078;-55
2023/02/07 06:24:51;;;;;;;6.78;2.47;;;27.30;68.70;;;;;;5085265;28;20249;-55
2023/02/07 06:27:18;;;;;;;5.72;2.45;;;27.20;68.60;;;;;;5084700;28;20047;-56
2023/02/07 06:29:44;;;;;;;5.22;2.38;;;27.20;68.60;;;;;;5084694;28;20217;-54
2023/02/07 06:32:11;;;;;;;4.75;2.38;;;27.20;68.70;;;;;;5084437;28;20017;-56
2023/02/07 06:34:37;;;;;;;4.95;2.50;;;27.20;69.20;;;;;;5084934;28;20078;-56
2023/02/07 06:37:04;;;;;;;5.13;2.70;;;27.20;68.70;;;;;;5084386;28;20062;-56
2023/02/07 06:39:30;;;;;;;8.10;3.83;;;27.20;68.70;;;;;;5084862;28;20301;-54
2023/02/07 06:41:57;;;;;;;7.35;3.90;;;27.20;68.70;;;;;;5084328;28;20033;-56
2023/02/07 06:44:24;;;;;;;7.07;3.80;;;27.20;68.80;;;;;;5084181;28;20066;-55
2023/02/07 06:46:50;;;;;;;10.77;3.90;;;27.20;68.80;;;;;;5084256;28;20036;-54
2023/02/07 06:49:17;;;;;;;5.78;3.50;;;27.20;68.90;;;;;;5084380;28;20024;-55
2023/02/07 06:51:43;;;;;;;6.95;3.17;;;27.20;68.90;;;;;;5084218;28;20052;-54
2023/02/07 06:54:10;;;;;;;6.80;3.05;;;27.20;69.00;;;;;;5084438;28;20193;-56
2023/02/07 06:56:37;;;;;;;5.55;3.10;;;27.10;68.80;;;;;;5084202;28;20212;-56
2023/02/07 06:59:03;;;;;;;7.45;3.15;;;27.10;68.90;;;;;;5084030;28;20324;-55
2023/02/07 07:01:30;;;;;;;8.82;3.30;;;27.10;68.90;;;;;;5084261;28;20084;-55
2023/02/07 07:03:57;;;;;;;7.60;3.00;;;27.10;69.10;;;;;;5084283;28;20016;-55
2023/02/07 07:06:23;;;;;;;11.05;3.42;;;27.10;69.10;;;;;;5083926;28;20365;-54
2023/02/07 07:08:50;;;;;;;6.38;2.92;;;27.10;69.10;;;;;;5084063;28;20158;-54
2023/02/07 07:11:17;;;;;;;6.82;3.22;;;27.10;69.20;;;;;;5084026;28;20032;-54
2023/02/07 07:13:44;;;;;;;7.72;3.20;;;27.10;69.30;;;;;;5083919;28;20016;-53
2023/02/07 07:16:10;;;;;;;7.18;3.17;;;27.00;69.30;;;;;;5077848;28;20082;-54
2023/02/07 07:18:38;;;;;;;6.38;3.47;;;27.00;69.40;;;;;;5077162;28;20029;-56
2023/02/07 07:21:07;;;;;;;8.60;2.70;;;27.00;69.50;;;;;;5063861;28;20025;-55
2023/02/07 07:23:34;;;;;;;5.85;2.70;;;27.00;69.50;;;;;;5063882;28;20029;-56
2023/02/07 07:26:00;;;;;;;3.95;2.92;;;26.90;69.60;;;;;;5063805;28;20035;-54
2023/02/07 07:28:27;;;;;;;6.55;2.40;;;26.90;69.60;;;;;;5063747;28;20024;-54
2023/02/07 07:30:54;;;;;;;6.45;2.50;;;26.90;69.80;;;;;;5063659;28;20041;-55
2023/02/07 07:33:20;;;;;;;4.85;2.40;;;26.90;69.80;;;;;;5063610;28;20100;-55
2023/02/07 07:35:47;;;;;;;6.70;2.95;;;26.90;69.80;;;;;;5063813;28;20337;-55
2023/02/07 07:38:13;;;;;;;7.35;2.50;;;26.90;69.70;;;;;;5063641;28;20044;-57
2023/02/07 07:40:40;;;;;;;7.38;2.58;;;26.90;69.70;;;;;;5063819;28;20033;-54
2023/02/07 07:43:06;;;;;;;6.07;2.50;;;26.90;69.60;;;;;;5063493;28;20071;-54
2023/02/07 07:45:33;;;;;;;5.78;2.78;;;26.90;69.60;;;;;;5063233;28;20047;-53
2023/02/07 07:47:59;;;;;;;7.22;2.70;;;26.90;69.60;;;;;;5063723;28;20086;-55
2023/02/07 07:50:26;;;;;;;5.30;2.60;;;26.90;69.50;;;;;;5063494;28;20025;-54
2023/02/07 07:52:52;;;;;;;6.60;2.47;;;26.90;69.50;;;;;;5063489;28;20048;-55
2023/02/07 07:55:19;;;;;;;4.65;2.28;;;26.90;69.40;;;;;;5063955;28;20044;-55
2023/02/07 07:57:46;;;;;;;3.85;2.40;;;26.90;69.40;;;;;;5063535;28;20025;-54
2023/02/07 08:00:13;;;;;;;4.15;2.25;;;26.90;69.40;;;;;;5063775;28;20051;-55
2023/02/07 08:02:40;;;;;;;6.35;2.30;;;26.90;69.40;;;;;;5063546;28;20021;-53
2023/02/07 08:05:07;;;;;;;3.47;1.85;;;26.90;69.30;;;;;;5063969;28;20019;-55
2023/02/07 08:07:34;;;;;;;4.93;2.20;;;26.90;69.30;;;;;;5063264;28;20037;-55
2023/02/07 08:10:01;;;;;;;6.00;2.38;;;26.90;69.40;;;;;;5064822;28;20082;-55
2023/02/07 08:12:27;;;;;;;5.10;2.15;;;26.80;69.30;;;;;;5075647;28;20035;-58
2023/02/07 08:14:54;;;;;;;4.70;2.40;;;26.80;69.30;;;;;;5083668;28;20028;-55
2023/02/07 08:17:20;;;;;;;3.72;2.30;;;26.80;69.40;;;;;;5083472;28;20017;-56
2023/02/07 08:19:47;;;;;;;5.60;2.33;;;26.80;69.30;;;;;;5083741;28;20036;-55
2023/02/07 08:22:14;;;;;;;4.88;2.55;;;26.80;69.30;;;;;;5083097;28;20028;-55
2023/02/07 08:24:41;;;;;;;5.32;2.25;;;26.80;69.30;;;;;;5083345;28;20317;-56
2023/02/07 08:27:08;;;;;;;5.13;2.35;;;26.80;69.30;;;;;;5086652;28;20028;-56
2023/02/07 08:29:34;;;;;;;5.60;2.05;;;26.80;69.30;;;;;;5086775;28;20055;-55
2023/02/07 08:32:01;;;;;;;7.40;2.22;;;26.80;69.20;;;;;;5086992;28;20028;-55
2023/02/07 08:34:30;;;;;;;5.30;2.10;;;26.80;69.30;;;;;;5086979;28;20032;-55
2023/02/07 08:36:57;;;;;;;4.53;2.20;;;26.80;69.30;;;;;;5086678;28;20229;-56
2023/02/07 08:39:23;;;;;;;4.13;2.08;;;26.80;69.40;;;;;;5087049;28;20019;-54
2023/02/07 08:41:50;;;;;;;5.50;2.40;;;26.70;69.40;;;;;;5086729;28;20024;-59
2023/02/07 08:44:16;;;;;;;5.47;2.45;;;26.70;69.50;;;;;;5086557;28;20255;-56
2023/02/07 08:46:43;;;;;;;7.25;2.10;;;26.70;69.70;;;;;;5086791;28;20036;-56
2023/02/07 08:49:09;;;;;;;5.38;2.10;;;26.70;69.70;;;;;;5086643;28;20212;-54
2023/02/07 08:51:36;;;;;;;8.52;2.60;;;26.70;69.80;;;;;;5086720;28;20248;-56
2023/02/07 08:54:03;;;;;;;9.52;2.55;;;26.60;69.90;;;;;;5086718;28;20043;-56
2023/02/07 08:56:29;;;;;;;7.07;2.55;;;26.60;70.00;;;;;;5086499;28;20070;-57
2023/02/07 08:58:56;;;;;;;6.60;2.92;;;26.60;70.10;;;;;;5086617;28;20016;-56
2023/02/07 09:01:22;;;;;;;7.10;2.50;;;26.60;70.10;;;;;;5086222;28;20036;-56
2023/02/07 09:03:49;;;;;;;4.90;2.63;;;26.70;70.30;;;;;;5087003;28;20323;-54
2023/02/07 09:06:15;;;;;;;7.10;2.30;;;26.60;70.30;;;;;;5086758;28;20024;-57
2023/02/07 09:08:42;;;;;;;6.43;2.13;;;26.60;71.00;;;;;;5086256;28;20055;-55
2023/02/07 09:11:09;;;;;;;7.50;2.33;;;26.60;70.50;;;;;;5086009;28;20067;-53
2023/02/07 09:13:35;;;;;;;8.98;2.65;;;26.60;70.70;;;;;;5086156;28;20060;-54
2023/02/07 09:16:02;;;;;;;6.72;2.28;;;26.60;70.80;;;;;;5086212;28;20044;-53
2023/02/07 09:18:29;;;;;;;7.03;2.50;;;26.60;70.90;;;;;;5086102;28;20027;-54
2023/02/07 09:20:56;;;;;;;4.03;2.20;;;26.50;70.90;;;;;;5085965;28;20036;-52
2023/02/07 09:23:22;;;;;;;6.03;2.40;;;26.60;71.10;;;;;;5085855;28;20027;-56
2023/02/07 09:25:51;;;;;;;6.47;2.53;;;26.50;71.20;;;;;;5085929;28;20095;-56
2023/02/07 09:28:19;;;;;;;7.57;2.63;;;26.50;71.20;;;;;;5085006;28;20185;-55
2023/02/07 09:30:46;;;;;;;6.53;2.35;;;26.50;71.30;;;;;;5085710;28;20388;-54
2023/02/07 09:33:14;;;;;;;5.50;2.47;;;26.50;71.40;;;;;;5085544;28;20029;-58
2023/02/07 09:35:42;;;;;;;6.63;2.40;;;26.40;71.40;;;;;;5085745;28;20024;-54
2023/02/07 09:38:17;;;;;;;7.95;2.22;;;26.40;71.40;;;;;;5084236;28;20024;-56
2023/02/07 09:40:45;;;;;;;5.88;2.60;;;26.50;71.60;;;;;;5085512;28;20035;-55
2023/02/07 09:43:28;;;;;;;9.40;2.53;;;26.40;71.60;;;;;;5084232;28;20220;-52
2023/02/07 09:45:59;;;;;;;;;;;26.40;71.70;;;;;;5079838;28;20072;-54
2023/02/07 09:48:49;;;;;;;10.15;2.88;;;26.40;71.80;;;;;;5065398;28;20192;-54
2023/02/07 09:51:19;;;;;;;11.00;2.50;;;26.40;71.80;;;;;;5027247;28;20043;-55
2023/02/07 09:53:53;;;;;;;10.05;2.85;;;26.40;71.80;;;;;;5065282;28;20029;-54
2023/02/07 09:56:23;;;;;;;8.43;2.40;;;26.40;71.90;;;;;;5065223;28;20020;-55
2023/02/07 09:59:03;;;;;;;6.40;2.60;;;26.40;72.00;;;;;;5065255;28;20044;-56
2023/02/07 10:01:41;;;;;;;10.52;2.63;;;26.40;72.10;;;;;;5067026;28;20049;-55
2023/02/07 10:04:25;;;;;;;13.07;3.67;;;26.30;72.20;;;;;;5065212;28;20029;-54
2023/02/07 10:06:55;;;;;;;10.48;3.72;;;26.30;72.30;;;;;;5065010;28;20020;-58
2023/02/07 10:09:27;;;;;;;10.15;3.30;;;26.30;72.30;;;;;;5065238;28;20305;-56
2023/02/07 10:12:08;;;;;;;13.13;3.10;;;26.30;72.20;;;;;;5064924;28;20017;-55
2023/02/07 10:14:38;;;;;;;12.20;3.30;;;26.30;72.20;;;;;;5064810;28;20041;-54
2023/02/07 10:17:35;;;;;;;10.07;3.20;;;26.30;72.10;;;;;;5064711;28;20043;-52
2023/02/07 10:20:30;;;;;;;9.30;3.20;;;26.30;72.10;;;;;;5065114;28;20021;-54
2023/02/07 10:23:15;;;;;;;11.77;3.47;;;26.30;72.00;;;;;;5064723;28;20244;-53
2023/02/07 10:25:51;;;;;;;8.35;3.10;;;26.30;72.00;;;;;;5065058;28;20025;-55
2023/02/07 10:28:28;;;;;;;12.98;3.47;;;26.30;72.10;;;;;;5068571;28;20021;-60
2023/02/07 10:31:00;;;;;;;9.10;3.30;;;26.30;72.10;;;;;;5064564;28;20052;-58
2023/02/07 10:33:32;;;;;;;8.40;2.90;;;26.30;72.10;;;;;;5064968;28;20025;-56
2023/02/07 10:36:17;;;;;;;11.30;2.88;;;26.30;72.20;;;;;;5064753;28;20059;-59
2023/02/07 10:39:16;;;;;;;11.35;3.28;;;26.30;72.20;;;;;;5064735;28;20201;-54
2023/02/07 10:41:42;;;;;;;13.80;3.40;;;26.30;72.30;;;;;;5059667;28;20086;-56
2023/02/07 10:44:18;;;;;;;8.45;3.13;;;26.30;72.40;;;;;;5064360;28;20020;-56
2023/02/07 10:46:49;;;;;;;11.88;3.05;;;26.30;72.60;;;;;;5078174;28;20357;-54
2023/02/07 10:49:25;;;;;;;13.65;3.25;;;26.30;72.60;;;;;;5084584;28;20062;-55
2023/02/07 10:52:01;;;;;;;13.88;2.90;;;26.30;72.70;;;;;;5084115;28;20039;-52
2023/02/07 10:54:29;;;;;;;11.90;3.05;;;26.20;72.80;;;;;;5081029;28;20197;-55
2023/02/07 10:56:59;;;;;;;10.57;3.15;;;26.20;73.00;;;;;;5064087;28;20025;-54
2023/02/07 10:59:30;;;;;;;13.57;3.47;;;26.20;73.10;;;;;;5064037;28;20059;-55
2023/02/07 11:01:57;;;;;;;22.35;3.53;;;26.20;73.20;;;;;;5064134;28;20329;-53
2023/02/07 11:04:37;;;;;;;21.17;4.93;;;26.20;73.30;;;;;;5074933;28;20029;-59
2023/02/07 11:07:06;;;;;;;23.40;5.20;;;26.20;73.50;;;;;;5084120;28;20028;-56
2023/02/07 11:09:36;;;;;;;15.65;5.57;;;26.20;73.60;;;;;;5078077;28;20027;-54
2023/02/07 11:12:15;;;;;;;14.70;5.10;;;26.20;73.70;;;;;;5073595;28;20100;-54
2023/02/07 11:15:03;;;;;;;15.68;4.68;;;26.10;73.70;;;;;;5083704;28;20016;-55
2023/02/07 11:17:31;;;;;;;18.30;5.07;;;26.20;74.00;;;;;;5084062;28;20033;-53
2023/02/07 11:20:03;;;;;;;21.95;7.07;;;26.20;74.30;;;;;;5083618;28;20248;-54
2023/02/07 11:22:30;;;;;;;40.53;11.10;;;26.20;74.30;;;;;;5084177;28;20051;-53
2023/02/07 11:25:05;;;;;;;27.70;11.23;;;26.20;74.20;;;;;;5084217;28;20038;-53
2023/02/07 11:27:42;;;;;;;48.67;10.68;;;26.20;74.10;;;;;;5083785;28;20096;-53
2023/02/07 11:30:22;;;;;;;58.35;12.80;;;26.20;74.00;;;;;;5084141;28;20029;-56
2023/02/07 11:33:02;;;;;;;128.98;17.33;;;26.20;73.90;;;;;;5083666;28;20028;-58
2023/02/07 11:35:28;;;;;;;66.28;12.18;;;26.20;73.90;;;;;;5083773;28;20025;-57
2023/02/07 11:38:12;;;;;;;54.03;12.60;;;26.00;74.40;;;;;;5082830;28;20048;-61
2023/02/07 11:40:42;;;;;;;60.92;9.45;;;25.90;75.00;;;;;;5082639;28;20032;-54
2023/02/07 11:43:08;;;;;;;56.55;9.35;;;25.70;75.20;;;;;;5083636;28;20037;-56
2023/02/07 11:45:37;;;;;;;47.25;8.82;;;25.70;75.50;;;;;;5084230;28;20050;-55
2023/02/07 11:48:05;;;;;;;35.80;7.05;;;25.80;75.40;;;;;;5084212;28;20347;-55
2023/02/07 11:50:38;;;;;;;38.50;7.20;;;25.80;75.20;;;;;;5084487;28;20028;-56
2023/02/07 11:53:18;;;;;;;31.48;6.32;;;25.90;75.00;;;;;;5084389;28;20047;-56
2023/02/07 11:55:45;;;;;;;28.23;5.65;;;26.00;74.80;;;;;;5084596;28;20032;-55
2023/02/07 11:58:22;;;;;;;18.63;4.85;;;26.00;74.50;;;;;;5082315;28;20062;-55
2023/02/07 12:00:49;;;;;;;21.45;4.80;;;26.00;74.40;;;;;;5083817;28;20056;-56
2023/02/07 12:03:19;;;;;;;13.63;4.20;;;26.10;74.40;;;;;;5087352;28;20032;-55
2023/02/07 12:05:50;;;;;;;22.00;4.50;;;26.10;74.30;;;;;;5087915;28;20039;-55
2023/02/07 12:08:22;;;;;;;20.80;3.80;;;26.10;74.30;;;;;;5088049;28;20021;-55
2023/02/07 12:10:56;;;;;;;19.17;4.00;;;26.20;74.30;;;;;;5087205;28;20048;-57
2023/02/07 12:13:38;;;;;;;18.80;3.88;;;26.20;74.30;;;;;;5087832;28;20020;-56
2023/02/07 12:16:51;;;;;;;12.48;3.83;;;26.20;74.10;;;;;;5087622;28;20055;-56
2023/02/07 12:19:24;;;;;;;21.08;3.72;;;26.20;74.00;;;;;;5088242;28;20082;-58
2023/02/07 12:21:58;;;;;;;17.90;4.00;;;26.30;74.00;;;;;;5087601;28;20040;-55
2023/02/07 12:24:56;;;;;;;17.58;3.25;;;26.30;73.90;;;;;;5087469;28;20028;-54
2023/02/07 12:27:29;;;;;;;12.98;3.17;;;26.30;73.90;;;;;;5087248;28;20111;-54
2023/02/07 12:30:16;;;;;;;15.02;3.08;;;26.40;73.90;;;;;;5088055;28;20074;-58
2023/02/07 12:32:53;;;;;;;7.60;2.45;;;26.40;73.90;;;;;;5087519;28;20055;-55
2023/02/07 12:35:29;;;;;;;7.82;2.65;;;26.40;73.80;;;;;;5088286;28;20043;-53
2023/02/07 12:38:16;;;;;;;10.07;2.92;;;26.50;73.80;;;;;;5087254;28;20028;-55
2023/02/07 12:40:46;;;;;;;12.13;3.08;;;26.50;73.90;;;;;;5087235;28;20385;-55
2023/02/07 12:43:40;;;;;;;7.30;2.55;;;26.50;73.80;;;;;;5087027;28;20028;-54
2023/02/07 12:46:35;;;;;;;15.88;2.88;;;26.60;73.90;;;;;;5084962;28;20059;-58
2023/02/07 12:49:31;;;;;;;9.25;2.70;;;26.60;73.90;;;;;;5087030;28;20032;-60
2023/02/07 12:52:19;;;;;;;7.95;2.83;;;26.60;73.90;;;;;;5087233;28;20091;-58
2023/02/07 12:55:19;;;;;;;10.32;2.75;;;26.60;74.00;;;;;;5087499;28;20059;-57
2023/02/07 12:57:54;;;;;;;11.25;3.03;;;26.70;74.10;;;;;;5033366;28;20030;-56
2023/02/07 13:00:37;;;;;;;9.20;2.80;;;26.70;74.10;;;;;;5087303;28;20051;-56
2023/02/07 13:03:35;;;;;;;12.00;3.33;;;26.70;74.00;;;;;;5086321;28;20032;-56